Terminal Aerodrome Forecast
Issued by NWS Charleston, SC

Home | Current Version | Previous Version | Text Only | Print | Product List | Glossary On
Versions: 1 2 3 4 5 6 7 8 9 10 11 12 13 14 15 16 17 18 19 20 21 22 23 24
000
FTUS42 KCHS 031739
TAFSAV
TAF
KSAV 031739Z 0318/0418 18010KT P6SM VCSH SCT030 BKN080
      TEMPO 0318/0320 6SM SHRA BKN030
     FM040000 11004KT P6SM SCT025
     FM041200 28007KT P6SM SCT030=

USA.gov is the U.S. government's official web portal to all federal, state and local government web resources and services.